Terminal Aerodrome Forecast
Issued by NWS

Home | Current Version | Previous Version | Text Only | Print | Product List | Glossary Off
Versions: 1 2 3 4 5 6 7 8 9 10 11 12 13 14 15 16 17 18

000
FTUS42 KMHX 271041 AAC
TAFPGV
TAF AMD
KPGV 271041Z 2711/2806 00000KT 1/2SM FZFG OVC001
      TEMPO 2711/2713 1SM BR OVC010
     FM271300 35006KT P6SM SCT250
     FM280100 01003KT P6SM BKN020
      AMD LTD TO CLD VIS AND WIND=

USA.gov is the U.S. government's official web portal to all federal, state and local government web resources and services.